Time;durP1;ratioP1;P1;durP2;ratioP2;P2;SDS_P1;SDS_P2;PMS_P1;PMS_P2;Temp;Humidity;BMP_temperature;BMP_pressure;BME280_temperature;BME280_humidity;BME280_pressure;Samples;Min_cycle;Max_cycle;Signal;HPM_P1;HPM_P2
2022/01/24 00:01:20;;;;;;;9.15;6.68;;;8.40;74.90;;;;;;6007403;23;92938;-71
2022/01/24 00:03:47;;;;;;;10.52;7.38;;;8.30;74.40;;;;;;6007806;23;92525;-71
2022/01/24 00:06:16;;;;;;;9.93;7.80;;;8.30;74.90;;;;;;5982027;23;92430;-71
2022/01/24 00:08:43;;;;;;;12.98;8.73;;;8.30;75.10;;;;;;6007612;23;93073;-71
2022/01/24 00:11:14;;;;;;;13.07;8.40;;;8.30;74.90;;;;;;6007777;23;92774;-67
2022/01/24 00:16:35;;;;;;;13.18;8.52;;;8.30;74.30;;;;;;6007618;23;92328;-67
2022/01/24 00:27:03;;;;;;;11.82;8.88;;;8.20;73.80;;;;;;6007781;23;92447;-67
2022/01/24 00:29:29;;;;;;;12.45;8.68;;;8.20;73.90;;;;;;6029719;23;94090;-67
2022/01/24 00:31:57;;;;;;;10.82;8.73;;;8.20;74.30;;;;;;5982094;23;93921;-67
2022/01/24 00:34:24;;;;;;;11.27;8.82;;;8.30;74.60;;;;;;5982541;23;92499;-67
2022/01/24 00:36:52;;;;;;;10.80;8.60;;;8.30;74.60;;;;;;6008239;23;92244;-67
2022/01/24 00:39:21;;;;;;;13.48;9.18;;;8.30;74.80;;;;;;5982289;23;93059;-67
2022/01/24 00:42:05;;;;;;;12.10;9.30;;;8.30;74.70;;;;;;5982056;23;93933;-67
2022/01/24 00:47:04;;;;;;;13.30;9.63;;;8.30;74.00;;;;;;6007165;23;92902;-67
2022/01/24 00:55:00;;;;;;;17.83;10.98;;;8.20;73.90;;;;;;6007176;23;92391;-67
2022/01/24 00:57:27;;;;;;;12.65;9.20;;;8.20;74.30;;;;;;6006374;23;92960;-67
2022/01/24 00:59:54;;;;;;;12.10;9.35;;;8.20;74.80;;;;;;5981775;23;95677;-67
2022/01/24 01:02:21;;;;;;;12.57;9.90;;;8.20;74.10;;;;;;6007213;23;92628;-67
2022/01/24 01:07:25;;;;;;;17.35;12.10;;;8.20;74.70;;;;;;6006547;23;92897;-67
2022/01/24 01:18:17;;;;;;;16.58;12.07;;;8.20;74.70;;;;;;6006941;23;92490;-67
2022/01/24 01:23:17;;;;;;;18.60;13.13;;;8.10;75.30;;;;;;6006401;23;93047;-67
2022/01/24 01:25:46;;;;;;;19.23;12.52;;;8.10;75.30;;;;;;6006056;23;107353;-67
2022/01/24 01:28:13;;;;;;;19.73;12.90;;;8.10;75.20;;;;;;6007385;23;91789;-67
2022/01/24 01:30:45;;;;;;;18.75;13.63;;;8.10;75.30;;;;;;6006210;23;92367;-67
2022/01/24 01:53:20;;;;;;;19.88;14.65;;;8.00;74.20;;;;;;6007715;23;93012;-67
2022/01/24 01:55:46;;;;;;;25.17;15.35;;;7.90;74.40;;;;;;6007928;23;95030;-67
2022/01/24 01:58:15;;;;;;;22.35;16.40;;;7.90;74.50;;;;;;6007578;23;92314;-67
2022/01/24 02:00:47;;;;;;;21.88;14.65;;;8.00;74.40;;;;;;6007314;23;92881;-67
2022/01/24 02:03:15;;;;;;;21.27;13.77;;;8.00;74.50;;;;;;5975767;23;96772;-67
2022/01/24 02:05:42;;;;;;;20.23;14.30;;;8.00;74.80;;;;;;5978295;23;104061;-67
2022/01/24 02:08:09;;;;;;;21.15;14.20;;;8.00;74.60;;;;;;5979302;23;92535;-67
2022/01/24 02:10:38;;;;;;;20.33;14.02;;;8.00;74.60;;;;;;5979106;23;92648;-67
2022/01/24 02:13:05;;;;;;;22.05;14.30;;;8.00;74.50;;;;;;5977161;23;94051;-67
2022/01/24 02:18:37;;;;;;;20.73;13.75;;;8.00;74.70;;;;;;5979263;23;92335;-67
2022/01/24 02:23:45;;;;;;;20.53;13.87;;;8.00;74.60;;;;;;5977081;23;96381;-67
2022/01/24 02:26:19;;;;;;;19.95;14.82;;;8.00;74.60;;;;;;5978944;23;92806;-67
2022/01/24 02:34:24;;;;;;;18.20;13.35;;;8.00;74.90;;;;;;5978957;23;93129;-67
2022/01/24 02:36:52;;;;;;;17.73;12.25;;;8.00;74.70;;;;;;5977461;23;93981;-67
2022/01/24 02:50:20;;;;;;;14.63;11.30;;;7.80;74.80;;;;;;5977414;23;92460;-67
2022/01/24 02:52:47;;;;;;;15.25;11.07;;;7.90;75.10;;;;;;5977208;23;92783;-67
2022/01/24 02:55:14;;;;;;;16.17;11.13;;;7.90;75.10;;;;;;6023354;23;96680;-67
2022/01/24 02:57:41;;;;;;;15.95;12.10;;;7.90;75.30;;;;;;5977808;23;108120;-67
2022/01/24 03:00:09;;;;;;;16.10;11.57;;;7.90;75.20;;;;;;5976898;23;92546;-67
2022/01/24 03:02:36;;;;;;;17.23;11.38;;;7.90;75.10;;;;;;5985839;23;92458;-67
2022/01/24 03:05:03;;;;;;;16.00;11.23;;;7.90;75.10;;;;;;6007238;23;93358;-66
2022/01/24 03:07:32;;;;;;;16.77;11.57;;;7.90;75.10;;;;;;6006836;23;92758;-66
2022/01/24 03:10:02;;;;;;;14.90;10.75;;;7.90;75.20;;;;;;5982157;23;92512;-67
2022/01/24 03:12:47;;;;;;;15.23;11.02;;;7.90;75.50;;;;;;5981879;23;91680;-67
2022/01/24 03:15:15;;;;;;;15.00;11.45;;;7.90;75.10;;;;;;6007231;23;92995;-67
2022/01/24 03:17:42;;;;;;;13.43;10.73;;;7.90;75.00;;;;;;5981103;23;93938;-66
2022/01/24 03:20:09;;;;;;;15.40;10.68;;;7.90;74.70;;;;;;6005889;23;94837;-67
2022/01/24 03:22:36;;;;;;;14.85;10.60;;;7.90;74.70;;;;;;6007128;23;92373;-67
2022/01/24 03:25:03;;;;;;;14.85;10.63;;;7.90;74.50;;;;;;6007075;23;93127;-71
2022/01/24 03:27:30;;;;;;;15.82;10.80;;;7.80;74.70;;;;;;6007153;23;92830;-71
2022/01/24 03:29:57;;;;;;;15.50;11.23;;;7.80;74.70;;;;;;5981431;23;92492;-71
2022/01/24 03:32:24;;;;;;;16.27;11.82;;;7.80;74.30;;;;;;5981705;23;92490;-71
2022/01/24 03:34:51;;;;;;;16.05;11.63;;;7.80;73.70;;;;;;6006725;23;93000;-72
2022/01/24 03:37:18;;;;;;;14.85;11.77;;;7.80;73.80;;;;;;5982619;23;92686;-71
2022/01/24 03:39:45;;;;;;;15.60;11.13;;;7.80;73.60;;;;;;6006871;23;92483;-71
2022/01/24 03:42:12;;;;;;;18.08;12.55;;;7.80;73.20;;;;;;6007308;23;92538;-71
2022/01/24 03:44:39;;;;;;;15.88;11.85;;;7.80;73.40;;;;;;6005423;23;95525;-71
2022/01/24 03:50:00;;;;;;;15.80;11.40;;;7.80;73.70;;;;;;5994959;23;92638;-70
2022/01/24 03:52:30;;;;;;;18.00;11.48;;;7.80;73.70;;;;;;6007507;23;92843;-71
2022/01/24 03:54:58;;;;;;;16.05;11.88;;;7.90;73.70;;;;;;6006713;23;93048;-71
2022/01/24 03:57:26;;;;;;;17.83;12.63;;;7.80;73.70;;;;;;5981227;23;94220;-71
2022/01/24 03:59:54;;;;;;;18.05;12.35;;;7.80;73.60;;;;;;5981227;23;92551;-71
2022/01/24 04:02:24;;;;;;;17.02;12.70;;;7.80;73.60;;;;;;5981318;23;102093;-70
2022/01/24 04:04:52;;;;;;;19.48;13.07;;;7.80;73.70;;;;;;6006699;23;96229;-71
2022/01/24 04:07:20;;;;;;;18.65;13.68;;;7.80;73.30;;;;;;6006898;23;94036;-71
2022/01/24 04:09:47;;;;;;;18.83;14.30;;;7.80;73.30;;;;;;6005378;23;94829;-71
2022/01/24 04:12:15;;;;;;;17.15;13.45;;;7.80;73.40;;;;;;5982056;23;92529;-70
2022/01/24 04:22:27;;;;;;;19.08;13.65;;;7.80;72.90;;;;;;5981642;23;92451;-71
2022/01/24 04:24:59;;;;;;;20.48;13.93;;;7.80;73.20;;;;;;6006830;23;93096;-71
2022/01/24 04:27:27;;;;;;;19.63;14.30;;;7.80;73.20;;;;;;6007333;23;94441;-71
2022/01/24 04:29:55;;;;;;;21.88;14.77;;;7.80;73.30;;;;;;6006745;23;92384;-71
2022/01/24 04:32:23;;;;;;;20.38;14.10;;;7.80;73.20;;;;;;6007055;23;92466;-71
2022/01/24 04:34:50;;;;;;;19.95;13.65;;;7.80;73.20;;;;;;6005047;23;95329;-70
2022/01/24 04:37:17;;;;;;;18.83;13.38;;;7.80;73.20;;;;;;5981500;23;97361;-71
2022/01/24 04:39:44;;;;;;;19.70;14.32;;;7.80;73.20;;;;;;6006565;23;92381;-71
2022/01/24 04:42:17;;;;;;;18.65;12.77;;;7.80;73.10;;;;;;5981332;23;92467;-71
2022/01/24 04:55:08;;;;;;;18.67;13.20;;;7.70;73.60;;;;;;5981034;23;94175;-70
2022/01/24 04:57:35;;;;;;;19.63;14.02;;;7.70;73.60;;;;;;6006859;23;92873;-71
2022/01/24 05:00:07;;;;;;;21.80;14.45;;;7.70;73.60;;;;;;5980102;23;94778;-70
2022/01/24 05:02:34;;;;;;;20.08;14.38;;;7.70;73.90;;;;;;5981733;23;92880;-71
2022/01/24 05:05:01;;;;;;;19.13;14.07;;;7.70;74.00;;;;;;6006688;23;93005;-71
2022/01/24 05:07:28;;;;;;;19.20;13.88;;;7.70;73.90;;;;;;6006831;23;92716;-70
2022/01/24 05:23:36;;;;;;;16.67;13.05;;;7.70;73.90;;;;;;5981323;23;92475;-71
2022/01/24 05:26:07;;;;;;;19.13;13.55;;;7.70;74.10;;;;;;6004729;23;95460;-71
2022/01/24 05:28:37;;;;;;;20.48;14.45;;;7.70;74.10;;;;;;6006333;23;96353;-71
2022/01/24 05:31:04;;;;;;;18.73;13.32;;;7.70;74.10;;;;;;6006415;23;92354;-71
2022/01/24 05:33:32;;;;;;;19.70;13.48;;;7.70;74.20;;;;;;5957553;23;101086;-70
2022/01/24 05:35:59;;;;;;;18.20;13.25;;;7.70;74.40;;;;;;5980568;23;95695;-71
2022/01/24 05:38:26;;;;;;;18.60;13.75;;;7.70;74.80;;;;;;6006279;23;92916;-70
2022/01/24 05:40:54;;;;;;;16.35;12.52;;;7.70;74.40;;;;;;6006226;23;92342;-71
2022/01/24 05:43:21;;;;;;;22.30;15.25;;;7.70;74.50;;;;;;6007035;23;91678;-71
2022/01/24 05:45:48;;;;;;;18.45;13.25;;;7.70;74.70;;;;;;6006452;23;92936;-71
2022/01/24 05:48:15;;;;;;;19.83;13.20;;;7.70;74.50;;;;;;5981247;23;92873;-71
2022/01/24 05:50:43;;;;;;;16.02;12.45;;;7.70;74.50;;;;;;6005534;23;94743;-71
2022/01/24 05:53:10;;;;;;;22.83;15.32;;;7.80;74.50;;;;;;5980880;23;92987;-71
2022/01/24 05:55:37;;;;;;;18.58;13.02;;;7.70;74.60;;;;;;6006408;23;93107;-70
2022/01/24 05:58:04;;;;;;;16.30;12.68;;;7.70;74.80;;;;;;5980897;23;92668;-71
2022/01/24 06:00:31;;;;;;;18.40;12.65;;;7.80;74.60;;;;;;5956950;23;92363;-71
2022/01/24 06:02:58;;;;;;;18.75;11.65;;;7.80;74.50;;;;;;5980721;23;92766;-71
2022/01/24 06:05:27;;;;;;;16.13;12.27;;;7.80;74.60;;;;;;6006302;23;93139;-71
2022/01/24 06:07:54;;;;;;;16.42;11.75;;;7.80;74.30;;;;;;6006366;23;93873;-71
2022/01/24 06:10:21;;;;;;;16.15;11.60;;;7.80;74.20;;;;;;6006407;23;92406;-70
2022/01/24 06:12:49;;;;;;;18.85;12.77;;;7.80;74.20;;;;;;5980671;23;92496;-71
2022/01/24 06:15:16;;;;;;;18.15;13.38;;;7.80;74.20;;;;;;6004258;23;96791;-70
2022/01/24 06:17:43;;;;;;;16.67;12.75;;;7.80;74.10;;;;;;5980636;23;96535;-71
2022/01/24 06:20:10;;;;;;;16.02;11.57;;;7.80;74.20;;;;;;6005650;23;92439;-70
2022/01/24 06:22:40;;;;;;;15.90;11.68;;;7.80;74.20;;;;;;6007046;23;92453;-71
2022/01/24 06:25:08;;;;;;;16.58;12.30;;;7.80;74.00;;;;;;6007056;23;93040;-70
2022/01/24 06:27:41;;;;;;;14.80;10.88;;;7.80;74.10;;;;;;5982129;23;94457;-71
2022/01/24 06:30:08;;;;;;;15.15;11.05;;;7.80;73.90;;;;;;5958173;23;92514;-71
2022/01/24 06:32:38;;;;;;;18.10;12.32;;;7.80;74.00;;;;;;5982419;23;92406;-70
2022/01/24 06:35:06;;;;;;;18.67;11.85;;;7.80;74.00;;;;;;5981930;23;92644;-70
2022/01/24 06:37:33;;;;;;;17.40;11.82;;;7.70;73.90;;;;;;6006930;23;93951;-71
2022/01/24 06:40:00;;;;;;;16.73;10.80;;;7.70;74.00;;;;;;6005697;23;94854;-70
2022/01/24 06:42:27;;;;;;;16.50;11.05;;;7.80;73.80;;;;;;6007592;23;92357;-71
2022/01/24 06:44:56;;;;;;;15.13;11.32;;;7.80;73.70;;;;;;6007332;23;93071;-71
2022/01/24 06:47:23;;;;;;;17.00;11.82;;;7.70;73.70;;;;;;6007032;23;93784;-71
2022/01/24 06:49:52;;;;;;;17.58;12.73;;;7.80;73.80;;;;;;5982362;23;92486;-71
2022/01/24 06:52:20;;;;;;;16.17;11.18;;;7.80;73.70;;;;;;6007330;23;92929;-72
2022/01/24 06:54:47;;;;;;;14.65;11.18;;;7.80;73.80;;;;;;6007281;23;93014;-71
2022/01/24 06:57:15;;;;;;;14.57;10.73;;;7.80;73.80;;;;;;5981701;23;93994;-71
2022/01/24 06:59:44;;;;;;;15.38;10.45;;;7.70;73.80;;;;;;5958737;23;92422;-71
2022/01/24 07:02:12;;;;;;;14.38;10.85;;;7.70;73.80;;;;;;6007167;23;92417;-71
2022/01/24 07:04:41;;;;;;;14.35;10.85;;;7.70;73.70;;;;;;5980300;23;95525;-71
2022/01/24 07:07:10;;;;;;;15.20;11.60;;;7.80;73.70;;;;;;5981450;23;96415;-71
2022/01/24 07:09:38;;;;;;;16.17;12.02;;;7.80;73.70;;;;;;6007254;23;98793;-71
2022/01/24 07:12:06;;;;;;;18.35;12.52;;;7.80;73.50;;;;;;6006793;23;92409;-71
2022/01/24 07:14:34;;;;;;;16.70;12.48;;;7.80;73.20;;;;;;6007117;23;93016;-71
2022/01/24 07:17:59;;;;;;;16.58;12.23;;;7.80;73.10;;;;;;6007108;23;93044;-70
2022/01/24 07:19:51;;;;;;;16.63;11.68;;;7.80;73.20;;;;;;5999082;23;92600;-71
2022/01/24 07:22:18;;;;;;;17.30;12.02;;;7.80;74.00;;;;;;5981897;23;92104;-71
2022/01/24 07:24:45;;;;;;;19.10;12.10;;;7.80;73.40;;;;;;6007074;23;93212;-70
2022/01/24 07:27:12;;;;;;;20.98;13.80;;;7.80;73.50;;;;;;6006587;23;92927;-70
2022/01/24 07:29:39;;;;;;;20.73;14.77;;;7.80;73.40;;;;;;5956488;23;94970;-71
2022/01/24 07:32:06;;;;;;;22.15;15.13;;;7.80;73.50;;;;;;6006949;23;92998;-70
2022/01/24 07:34:34;;;;;;;25.58;16.80;;;7.80;73.40;;;;;;5981339;23;92932;-71
2022/01/24 07:37:01;;;;;;;23.48;16.25;;;7.80;73.30;;;;;;6006976;23;92333;-71
2022/01/24 07:39:29;;;;;;;25.77;16.92;;;7.80;73.40;;;;;;6007040;23;92918;-71
2022/01/24 07:42:02;;;;;;;26.38;17.42;;;7.80;73.20;;;;;;5981498;23;92557;-71
2022/01/24 07:44:29;;;;;;;27.02;17.92;;;7.80;73.20;;;;;;6006870;23;93360;-71
2022/01/24 07:46:56;;;;;;;27.25;17.75;;;7.80;73.20;;;;;;6007283;23;92681;-71
2022/01/24 07:49:23;;;;;;;29.80;18.88;;;7.80;73.20;;;;;;5981193;23;92354;-71
2022/01/24 07:51:51;;;;;;;30.23;19.73;;;7.80;73.20;;;;;;6007255;23;92314;-71
2022/01/24 07:54:18;;;;;;;52.90;33.05;;;7.80;73.30;;;;;;6004784;23;108640;-71
2022/01/24 07:56:45;;;;;;;37.25;25.17;;;7.80;73.10;;;;;;5981665;23;95173;-71
2022/01/24 07:59:12;;;;;;;33.08;20.30;;;7.80;73.00;;;;;;5981246;23;92429;-71
2022/01/24 08:01:41;;;;;;;30.02;20.50;;;7.80;73.00;;;;;;5981832;23;92533;-71
2022/01/24 08:04:09;;;;;;;34.75;20.58;;;7.90;72.90;;;;;;5975901;23;94113;-71
2022/01/24 08:06:36;;;;;;;35.08;22.08;;;7.90;72.60;;;;;;5978213;23;92887;-71
2022/01/24 08:09:05;;;;;;;33.22;20.92;;;7.90;72.40;;;;;;5978612;23;92334;-71
2022/01/24 08:11:32;;;;;;;35.75;21.98;;;7.90;72.20;;;;;;5978657;23;91675;-71
2022/01/24 08:13:59;;;;;;;37.13;22.50;;;7.90;72.00;;;;;;5976616;23;95847;-71
2022/01/24 08:16:26;;;;;;;42.30;24.92;;;7.90;72.10;;;;;;5978029;23;92794;-71
2022/01/24 08:18:58;;;;;;;38.92;25.00;;;8.00;72.50;;;;;;5975437;23;94921;-71
2022/01/24 08:21:25;;;;;;;42.38;24.63;;;7.90;72.10;;;;;;5977846;23;92436;-71
2022/01/24 08:23:52;;;;;;;39.72;23.92;;;8.00;72.10;;;;;;5978373;23;93314;-71
2022/01/24 08:26:19;;;;;;;46.40;26.85;;;7.90;72.30;;;;;;5977681;23;103608;-69
2022/01/24 08:28:46;;;;;;;44.40;27.17;;;8.00;72.50;;;;;;5978506;23;92732;-67
2022/01/24 08:31:13;;;;;;;52.50;29.13;;;8.00;72.20;;;;;;5976711;23;92481;-67
2022/01/24 08:33:40;;;;;;;42.88;26.83;;;8.00;72.30;;;;;;5976779;23;93002;-67
2022/01/24 08:36:08;;;;;;;44.85;27.75;;;8.00;71.60;;;;;;5978780;23;92715;-67
2022/01/24 08:38:35;;;;;;;42.33;26.65;;;8.00;71.40;;;;;;5976190;23;92563;-67
2022/01/24 08:41:17;;;;;;;42.63;25.33;;;8.10;71.10;;;;;;5978394;23;92418;-68
2022/01/24 08:43:57;;;;;;;38.55;23.90;;;8.10;70.70;;;;;;5975340;23;96600;-69
2022/01/24 08:46:24;;;;;;;38.55;25.23;;;8.10;71.00;;;;;;5978126;23;95209;-68
2022/01/24 08:48:52;;;;;;;42.47;25.52;;;8.10;70.40;;;;;;5978339;23;92488;-71
2022/01/24 08:51:19;;;;;;;43.72;26.02;;;8.10;70.10;;;;;;5978239;23;92369;-68
2022/01/24 08:54:02;;;;;;;45.25;28.08;;;8.10;69.90;;;;;;5978428;23;93014;-68
2022/01/24 08:56:29;;;;;;;43.60;27.38;;;8.20;70.10;;;;;;5977888;23;92974;-68
2022/01/24 08:58:56;;;;;;;43.97;26.17;;;8.20;70.30;;;;;;5976252;23;92452;-68
2022/01/24 09:01:23;;;;;;;44.10;28.02;;;8.20;69.60;;;;;;5976750;23;91806;-69
2022/01/24 09:03:50;;;;;;;50.53;31.13;;;8.20;69.30;;;;;;5993637;23;100795;-68
2022/01/24 09:06:18;;;;;;;46.95;29.20;;;8.20;69.80;;;;;;6006423;23;92830;-68
2022/01/24 09:08:45;;;;;;;46.45;29.40;;;8.30;69.90;;;;;;6005348;23;94729;-68
2022/01/24 09:11:12;;;;;;;50.40;31.30;;;8.30;70.10;;;;;;6006473;23;92446;-68
2022/01/24 09:13:39;;;;;;;53.70;30.25;;;8.30;70.20;;;;;;5981111;23;92917;-68
2022/01/24 09:16:06;;;;;;;47.53;29.30;;;8.30;70.20;;;;;;5981375;23;92883;-69
2022/01/24 09:18:33;;;;;;;50.33;30.60;;;8.40;70.10;;;;;;6006465;23;92804;-69
2022/01/24 09:21:00;;;;;;;50.58;30.60;;;8.40;70.30;;;;;;6006932;23;92338;-69
2022/01/24 09:23:27;;;;;;;59.58;34.08;;;8.40;69.90;;;;;;6006572;23;93156;-69
2022/01/24 09:25:55;;;;;;;52.47;32.67;;;8.40;69.80;;;;;;5981469;23;93938;-68
2022/01/24 09:28:22;;;;;;;57.35;31.65;;;8.40;69.70;;;;;;6006607;23;92791;-68
2022/01/24 09:30:50;;;;;;;57.67;33.85;;;8.40;69.80;;;;;;6006797;23;92477;-69
2022/01/24 09:33:17;;;;;;;56.38;33.92;;;8.40;70.10;;;;;;6005016;23;95323;-69
2022/01/24 09:35:51;;;;;;;57.53;35.05;;;8.40;70.10;;;;;;6006655;23;95303;-69
2022/01/24 09:38:20;;;;;;;58.38;33.58;;;8.40;70.30;;;;;;6006317;23;96051;-69
2022/01/24 09:40:48;;;;;;;58.78;33.75;;;8.40;70.50;;;;;;6006528;23;92564;-68
2022/01/24 09:43:14;;;;;;;54.70;33.13;;;8.40;70.60;;;;;;6006379;23;92454;-68
2022/01/24 09:45:42;;;;;;;59.30;34.90;;;8.50;70.70;;;;;;6006120;23;92877;-69
2022/01/24 09:48:11;;;;;;;62.08;33.00;;;8.50;70.70;;;;;;6006482;23;92396;-69
2022/01/24 09:50:38;;;;;;;61.25;34.25;;;8.50;70.50;;;;;;6006696;23;91770;-69
2022/01/24 09:53:05;;;;;;;64.20;31.75;;;8.50;70.50;;;;;;5981492;23;93054;-69
2022/01/24 09:55:32;;;;;;;59.47;34.28;;;8.50;70.40;;;;;;6005797;23;93625;-69
2022/01/24 09:57:59;;;;;;;50.22;33.47;;;8.50;70.40;;;;;;5974843;23;94957;-68
2022/01/24 10:00:27;;;;;;;52.67;32.83;;;8.60;70.50;;;;;;6007583;23;93009;-69
2022/01/24 10:02:55;;;;;;;53.28;33.65;;;8.60;70.30;;;;;;6006934;23;93233;-69
2022/01/24 10:05:50;;;;;;;56.03;34.63;;;8.60;70.80;;;;;;5981815;23;93021;-69
2022/01/24 10:08:29;;;;;;;55.10;35.58;;;8.60;70.80;;;;;;6007273;23;92300;-69
2022/01/24 10:11:02;;;;;;;53.88;34.13;;;8.60;70.80;;;;;;5981782;23;92532;-69
2022/01/24 10:16:26;;;;;;;51.92;31.90;;;8.60;70.50;;;;;;5982636;23;94047;-68
2022/01/24 10:19:07;;;;;;;54.63;34.05;;;8.70;70.80;;;;;;6007750;23;93020;-68
2022/01/24 10:22:03;;;;;;;53.72;34.55;;;8.70;70.70;;;;;;5982179;23;92860;-68
2022/01/24 10:24:37;;;;;;;53.90;34.50;;;8.70;70.50;;;;;;6005682;23;95292;-69
2022/01/24 10:27:16;;;;;;;55.03;33.92;;;8.80;70.30;;;;;;6007243;23;95204;-69
2022/01/24 10:30:03;;;;;;;57.88;33.88;;;8.80;70.10;;;;;;5981909;23;92400;-69
2022/01/24 10:32:38;;;;;;;58.40;35.13;;;8.80;70.10;;;;;;6007289;23;92299;-69
2022/01/24 10:35:25;;;;;;;52.75;34.72;;;8.80;70.20;;;;;;6007418;23;93006;-69
2022/01/24 10:38:15;;;;;;;53.22;33.38;;;8.90;70.00;;;;;;6007480;23;92331;-69
2022/01/24 10:40:49;;;;;;;50.53;32.05;;;8.80;70.20;;;;;;6007240;23;92405;-69
2022/01/24 10:43:27;;;;;;;58.50;35.78;;;8.80;70.20;;;;;;5982818;23;91774;-69
2022/01/24 10:45:57;;;;;;;56.75;33.53;;;8.90;70.20;;;;;;5982187;23;93987;-69
2022/01/24 10:48:27;;;;;;;54.45;32.05;;;8.90;70.10;;;;;;6007284;23;92666;-69
2022/01/24 10:51:18;;;;;;;51.83;31.63;;;8.90;69.30;;;;;;6006064;23;94684;-68
2022/01/24 10:53:54;;;;;;;54.63;32.78;;;8.90;68.80;;;;;;6007357;23;92426;-68
2022/01/24 10:56:33;;;;;;;58.88;33.22;;;8.90;68.90;;;;;;5981839;23;94472;-69
2022/01/24 10:59:06;;;;;;;53.03;32.42;;;8.90;68.70;;;;;;5982388;23;92859;-69
2022/01/24 11:01:33;;;;;;;54.03;32.20;;;8.90;68.70;;;;;;6007037;23;92315;-69
2022/01/24 11:04:06;;;;;;;55.03;32.72;;;8.90;68.90;;;;;;6006490;23;98727;-68
2022/01/24 11:06:39;;;;;;;57.80;34.23;;;9.00;69.10;;;;;;6007061;23;92948;-68
2022/01/24 11:09:24;;;;;;;53.80;32.50;;;8.90;69.30;;;;;;6007107;23;92736;-68
2022/01/24 11:12:01;;;;;;;53.85;32.80;;;9.00;69.50;;;;;;6007098;23;92380;-69
2022/01/24 11:14:31;;;;;;;54.45;32.55;;;9.00;69.80;;;;;;6007367;23;92717;-69
2022/01/24 11:16:59;;;;;;;63.28;33.95;;;9.00;69.70;;;;;;5979802;23;96706;-69
2022/01/24 12:13:05;;;;;;;;;;;9.00;69.80;;;;;;6007661;23;93326;-69
2022/01/24 12:15:41;;;;;;;60.15;34.72;;;9.00;69.30;;;;;;6008976;23;92403;-68
2022/01/24 12:18:27;;;;;;;63.13;36.33;;;9.00;69.60;;;;;;6006838;23;92361;-69
2022/01/24 12:21:14;;;;;;;60.80;36.33;;;9.10;69.50;;;;;;6006326;23;93102;-69
2022/01/24 12:23:43;;;;;;;61.03;36.05;;;9.10;69.30;;;;;;6007139;23;92817;-69
2022/01/24 12:26:36;;;;;;;63.92;36.92;;;9.10;69.30;;;;;;5986081;23;92499;-69
2022/01/24 12:29:10;;;;;;;66.40;39.72;;;9.10;69.50;;;;;;6007102;23;92392;-69
2022/01/24 12:31:44;;;;;;;64.28;37.38;;;9.10;68.90;;;;;;6004749;23;95443;-69
2022/01/24 12:34:16;;;;;;;57.92;35.45;;;9.10;68.60;;;;;;6006993;23;95331;-69
2022/01/24 12:36:50;;;;;;;64.32;37.78;;;9.10;68.70;;;;;;6006896;23;92345;-69
2022/01/24 12:39:20;;;;;;;;;;;9.10;69.20;;;;;;6007766;23;92410;-68
2022/01/24 12:41:57;;;;;;;59.70;34.20;;;9.00;67.80;;;;;;6030736;23;93278;-69
2022/01/24 12:47:21;;;;;;;62.25;37.28;;;9.00;68.40;;;;;;6007149;23;92395;-69
2022/01/24 12:49:52;;;;;;;56.65;33.15;;;9.10;69.00;;;;;;6007298;23;91586;-69
2022/01/24 12:52:22;;;;;;;61.55;37.15;;;9.00;69.00;;;;;;5981162;23;95817;-69
2022/01/24 12:54:51;;;;;;;66.55;36.20;;;9.00;68.60;;;;;;6005388;23;92514;-69
2022/01/24 12:57:22;;;;;;;65.13;39.75;;;9.00;68.00;;;;;;5978231;23;106841;-69
2022/01/24 12:59:55;;;;;;;66.40;37.97;;;9.00;67.60;;;;;;6006790;23;92295;-69
2022/01/24 13:02:31;;;;;;;68.15;37.13;;;9.00;67.30;;;;;;6006626;23;93002;-69
2022/01/24 13:05:10;;;;;;;62.33;36.65;;;9.00;67.00;;;;;;5981360;23;92406;-69
2022/01/24 13:07:39;;;;;;;70.68;39.92;;;9.10;67.30;;;;;;5981686;23;92406;-69
2022/01/24 13:10:17;;;;;;;64.75;38.35;;;9.00;67.00;;;;;;6006928;23;92448;-69
2022/01/24 13:13:06;;;;;;;62.10;36.88;;;9.00;66.60;;;;;;6006339;23;93033;-69
2022/01/24 13:21:17;;;;;;;65.15;36.15;;;9.00;66.60;;;;;;6006888;23;92394;-69
2022/01/24 13:23:59;;;;;;;69.85;38.72;;;9.00;66.70;;;;;;6004786;23;95315;-68
2022/01/24 13:26:27;;;;;;;70.40;38.08;;;9.00;67.10;;;;;;6006563;23;95532;-68
2022/01/24 13:29:05;;;;;;;68.90;36.85;;;8.90;67.40;;;;;;6006285;23;92321;-69
2022/01/24 13:31:33;;;;;;;62.72;36.40;;;9.00;67.70;;;;;;5981147;23;92481;-69
2022/01/24 13:34:02;;;;;;;65.68;38.03;;;8.90;68.30;;;;;;6005994;23;93394;-67
2022/01/24 13:36:29;;;;;;;61.40;36.88;;;8.90;68.20;;;;;;6006308;23;92677;-70
2022/01/24 13:38:56;;;;;;;64.43;37.17;;;8.90;68.80;;;;;;6006273;23;92380;-70
2022/01/24 13:41:24;;;;;;;63.10;36.85;;;8.90;68.80;;;;;;6006952;23;91723;-70
2022/01/24 13:44:04;;;;;;;61.15;36.17;;;8.90;68.80;;;;;;5980969;23;92552;-73
2022/01/24 13:46:43;;;;;;;63.42;36.78;;;8.90;68.70;;;;;;6006484;23;93115;-74
2022/01/24 13:49:13;;;;;;;63.13;36.20;;;8.90;68.80;;;;;;6005194;23;94825;-73
2022/01/24 13:51:43;;;;;;;63.85;36.90;;;8.80;69.00;;;;;;5980738;23;92543;-73
2022/01/24 13:54:13;;;;;;;62.65;37.70;;;8.90;69.40;;;;;;6006381;23;92997;-73
2022/01/24 13:56:56;;;;;;;65.40;38.83;;;8.80;68.60;;;;;;6005965;23;93392;-73
2022/01/24 13:59:26;;;;;;;66.07;38.90;;;8.90;68.60;;;;;;6006093;23;92469;-73
2022/01/24 14:02:01;;;;;;;63.90;36.65;;;8.80;68.50;;;;;;6005749;23;92522;-74
2022/01/24 14:04:30;;;;;;;61.15;36.72;;;8.80;68.70;;;;;;6006137;23;93310;-69
2022/01/24 14:07:01;;;;;;;60.83;35.85;;;8.80;68.90;;;;;;6006259;23;92865;-69
2022/01/24 14:09:34;;;;;;;65.72;37.88;;;8.80;69.00;;;;;;5981177;23;92432;-69
2022/01/24 14:12:03;;;;;;;61.65;36.97;;;8.80;68.80;;;;;;6006181;23;92336;-69
2022/01/24 14:14:41;;;;;;;62.85;35.97;;;8.80;68.50;;;;;;6003894;23;108077;-68
2022/01/24 14:17:23;;;;;;;63.17;36.63;;;8.70;68.00;;;;;;5980270;23;96403;-68
2022/01/24 14:20:03;;;;;;;64.75;38.30;;;8.70;67.60;;;;;;6005636;23;92405;-68
2022/01/24 14:22:53;;;;;;;63.10;36.80;;;8.70;67.40;;;;;;6006156;23;92276;-72
2022/01/24 14:25:29;;;;;;;60.45;35.95;;;8.70;67.70;;;;;;6005733;23;92966;-73
2022/01/24 14:28:16;;;;;;;63.92;37.85;;;8.60;68.00;;;;;;6005636;23;92872;-72
2022/01/24 14:30:45;;;;;;;66.72;37.92;;;8.60;67.90;;;;;;6006065;23;92489;-72
2022/01/24 14:33:18;;;;;;;65.93;38.10;;;8.60;68.00;;;;;;6006081;23;91693;-73
2022/01/24 14:36:04;;;;;;;61.78;35.78;;;8.60;68.40;;;;;;6005416;23;94302;-72
2022/01/24 14:38:38;;;;;;;60.85;35.15;;;8.60;67.90;;;;;;6005874;23;92718;-73
2022/01/24 14:41:06;;;;;;;;;;;8.60;68.30;;;;;;6004792;23;94727;-72
2022/01/24 14:46:24;;;;;;;58.47;33.95;;;8.50;68.60;;;;;;6007347;23;92983;-72
2022/01/24 14:48:53;;;;;;;60.85;34.83;;;8.40;68.20;;;;;;5982253;23;93764;-72
2022/01/24 14:51:27;;;;;;;57.88;34.90;;;8.40;68.10;;;;;;6007311;23;92504;-72
2022/01/24 14:53:57;;;;;;;63.33;35.92;;;8.50;68.20;;;;;;5981535;23;92589;-72
2022/01/24 14:56:25;;;;;;;58.45;33.95;;;8.40;68.40;;;;;;6006795;23;93054;-72
2022/01/24 14:58:53;;;;;;;55.30;32.85;;;8.40;68.30;;;;;;6007607;23;92909;-72
2022/01/24 15:01:21;;;;;;;53.05;32.42;;;8.40;68.40;;;;;;5958217;23;92485;-73
2022/01/24 15:03:53;;;;;;;57.03;33.58;;;8.30;68.40;;;;;;6007183;23;92438;-73
2022/01/24 15:06:20;;;;;;;57.53;33.65;;;8.30;68.10;;;;;;6004802;23;114818;-72
2022/01/24 15:08:49;;;;;;;51.50;31.48;;;8.40;67.70;;;;;;6007005;23;95105;-72
2022/01/24 15:11:20;;;;;;;51.72;32.35;;;8.30;67.90;;;;;;6006965;23;92382;-72
2022/01/24 15:14:48;;;;;;;52.83;33.55;;;8.30;68.10;;;;;;6007101;23;92386;-72
2022/01/24 15:16:53;;;;;;;52.55;31.60;;;8.30;68.40;;;;;;5993850;23;93013;-72
2022/01/24 15:27:41;;;;;;;47.15;31.00;;;8.20;69.40;;;;;;6007239;23;92915;-72
2022/01/24 15:30:10;;;;;;;46.47;29.45;;;8.20;69.50;;;;;;6007028;23;93012;-72
2022/01/24 15:32:41;;;;;;;47.35;31.20;;;8.20;69.50;;;;;;6006072;23;95042;-72
2022/01/24 15:35:08;;;;;;;47.67;30.70;;;8.10;69.40;;;;;;6006613;23;95155;-72
2022/01/24 15:37:35;;;;;;;50.47;31.08;;;8.10;69.50;;;;;;6006981;23;92948;-72
2022/01/24 15:40:04;;;;;;;49.67;30.42;;;8.10;69.70;;;;;;6006911;23;92850;-72
2022/01/24 15:47:44;;;;;;;48.28;30.85;;;8.00;69.80;;;;;;6007331;23;93024;-72
2022/01/24 15:50:15;;;;;;;48.83;30.83;;;8.00;69.80;;;;;;6007305;23;93006;-72
2022/01/24 15:52:42;;;;;;;48.45;31.58;;;8.00;69.80;;;;;;6007333;23;92502;-72
2022/01/24 15:55:15;;;;;;;44.83;29.48;;;8.00;70.00;;;;;;5981010;23;92480;-72
2022/01/24 15:57:43;;;;;;;48.23;30.33;;;8.00;70.00;;;;;;6005291;23;95419;-73
2022/01/24 16:00:16;;;;;;;53.42;31.80;;;8.00;70.80;;;;;;6006546;23;95320;-72
2022/01/24 16:02:46;;;;;;;50.00;31.42;;;8.00;70.10;;;;;;6007143;23;92441;-72
2022/01/24 16:05:15;;;;;;;49.83;31.48;;;8.00;70.10;;;;;;6006992;23;92386;-72